Terminal Aerodrome Forecast
Issued by NWS Cleveland, OH

Home | Current Version | Previous Version | Graphics & Text | Print | Product List | Glossary On
Versions: 1 2 3 4 5 6 7 8 9 10 11 12 13 14 15 16 17 18 19 20
088
FTUS41 KCLE 141720
TAFERI
TAF
KERI 141720Z 1418/1518 VRB05KT P6SM SKC
     FM150300 18010KT P6SM BKN120
     FM150600 18012G22KT P6SM BKN060
     FM151000 20020G30KT P6SM SCT030 BKN250
     FM151300 21020G30KT P6SM BKN030=

USA.gov is the U.S. government's official web portal to all federal, state and local government web resources and services.